sensor_id;sensor_type;location;lat;lon;timestamp;temperature;humidity
5775;DHT22;2913;51.120;6.772;2022-09-09T00:06:36;17.50;99.90
5775;DHT22;2913;51.120;6.772;2022-09-09T00:09:11;17.50;99.90
5775;DHT22;2913;51.120;6.772;2022-09-09T00:11:44;17.50;99.90
5775;DHT22;2913;51.120;6.772;2022-09-09T00:17:30;17.40;99.90
5775;DHT22;2913;51.120;6.772;2022-09-09T00:22:30;17.40;99.90
5775;DHT22;2913;51.120;6.772;2022-09-09T00:25:11;17.40;99.90
5775;DHT22;2913;51.120;6.772;2022-09-09T00:27:49;17.40;99.90
5775;DHT22;2913;51.120;6.772;2022-09-09T00:30:31;17.40;99.90
5775;DHT22;2913;51.120;6.772;2022-09-09T00:33:12;17.40;99.90
5775;DHT22;2913;51.120;6.772;2022-09-09T00:35:45;17.40;99.90
5775;DHT22;2913;51.120;6.772;2022-09-09T00:38:13;17.40;99.90
5775;DHT22;2913;51.120;6.772;2022-09-09T00:40:55;17.50;99.90
5775;DHT22;2913;51.120;6.772;2022-09-09T00:43:35;17.50;99.90
5775;DHT22;2913;51.120;6.772;2022-09-09T00:54:50;17.60;99.90
5775;DHT22;2913;51.120;6.772;2022-09-09T00:57:32;17.60;99.90
5775;DHT22;2913;51.120;6.772;2022-09-09T01:03:00;17.70;99.90
5775;DHT22;2913;51.120;6.772;2022-09-09T01:11:01;17.50;99.90
5775;DHT22;2913;51.120;6.772;2022-09-09T01:13:33;17.60;99.90
5775;DHT22;2913;51.120;6.772;2022-09-09T01:16:04;17.50;99.90
5775;DHT22;2913;51.120;6.772;2022-09-09T01:18:43;17.50;99.90
5775;DHT22;2913;51.120;6.772;2022-09-09T01:24:19;17.40;99.90
5775;DHT22;2913;51.120;6.772;2022-09-09T01:26:46;17.30;99.90
5775;DHT22;2913;51.120;6.772;2022-09-09T01:29:17;17.40;99.90
5775;DHT22;2913;51.120;6.772;2022-09-09T01:31:54;17.30;99.90
5775;DHT22;2913;51.120;6.772;2022-09-09T01:34:23;17.30;99.90
5775;DHT22;2913;51.120;6.772;2022-09-09T01:36:59;17.30;99.90
5775;DHT22;2913;51.120;6.772;2022-09-09T01:39:30;17.30;99.90
5775;DHT22;2913;51.120;6.772;2022-09-09T01:41:56;17.20;99.90
5775;DHT22;2913;51.120;6.772;2022-09-09T01:44:25;17.30;99.90
5775;DHT22;2913;51.120;6.772;2022-09-09T01:46:51;17.20;99.90
5775;DHT22;2913;51.120;6.772;2022-09-09T01:49:17;17.20;99.90
5775;DHT22;2913;51.120;6.772;2022-09-09T01:51:49;17.30;99.90
5775;DHT22;2913;51.120;6.772;2022-09-09T01:54:18;17.30;99.90
5775;DHT22;2913;51.120;6.772;2022-09-09T01:57:18;17.30;99.90
5775;DHT22;2913;51.120;6.772;2022-09-09T02:05:25;17.30;99.90
5775;DHT22;2913;51.120;6.772;2022-09-09T02:08:59;17.30;99.90
5775;DHT22;2913;51.120;6.772;2022-09-09T02:11:19;17.40;99.90
5775;DHT22;2913;51.120;6.772;2022-09-09T02:14:12;17.40;99.90
5775;DHT22;2913;51.120;6.772;2022-09-09T02:16:50;17.30;99.90
5775;DHT22;2913;51.120;6.772;2022-09-09T02:19:26;17.30;99.90
5775;DHT22;2913;51.120;6.772;2022-09-09T02:21:55;17.30;99.90
5775;DHT22;2913;51.120;6.772;2022-09-09T02:24:23;17.30;99.90
5775;DHT22;2913;51.120;6.772;2022-09-09T02:26:53;17.30;99.90
5775;DHT22;2913;51.120;6.772;2022-09-09T02:29:31;17.30;99.90
5775;DHT22;2913;51.120;6.772;2022-09-09T02:32:01;17.20;99.90
5775;DHT22;2913;51.120;6.772;2022-09-09T02:34:30;17.30;99.90
5775;DHT22;2913;51.120;6.772;2022-09-09T02:37:01;17.30;99.90
5775;DHT22;2913;51.120;6.772;2022-09-09T02:39:28;17.30;99.90
5775;DHT22;2913;51.120;6.772;2022-09-09T02:41:54;17.20;99.90
5775;DHT22;2913;51.120;6.772;2022-09-09T02:44:19;17.30;99.90
5775;DHT22;2913;51.120;6.772;2022-09-09T02:56:03;17.20;99.90
5775;DHT22;2913;51.120;6.772;2022-09-09T02:58:23;17.10;99.90
5775;DHT22;2913;51.120;6.772;2022-09-09T03:00:52;17.10;99.90
5775;DHT22;2913;51.120;6.772;2022-09-09T03:03:19;17.10;99.90
5775;DHT22;2913;51.120;6.772;2022-09-09T03:05:47;17.10;99.90
5775;DHT22;2913;51.120;6.772;2022-09-09T03:08:13;17.10;99.90
5775;DHT22;2913;51.120;6.772;2022-09-09T03:10:41;17.20;99.90
5775;DHT22;2913;51.120;6.772;2022-09-09T03:13:07;17.10;99.90
5775;DHT22;2913;51.120;6.772;2022-09-09T03:15:34;17.10;99.90
5775;DHT22;2913;51.120;6.772;2022-09-09T03:18:02;17.10;99.90
5775;DHT22;2913;51.120;6.772;2022-09-09T03:20:29;17.10;99.90
5775;DHT22;2913;51.120;6.772;2022-09-09T03:22:55;17.10;99.90
5775;DHT22;2913;51.120;6.772;2022-09-09T03:25:26;17.20;99.90
5775;DHT22;2913;51.120;6.772;2022-09-09T03:27:56;17.20;99.90
5775;DHT22;2913;51.120;6.772;2022-09-09T03:30:26;17.20;99.90
5775;DHT22;2913;51.120;6.772;2022-09-09T03:32:54;17.20;99.90
5775;DHT22;2913;51.120;6.772;2022-09-09T03:35:20;17.10;99.90
5775;DHT22;2913;51.120;6.772;2022-09-09T03:37:49;17.10;99.90
5775;DHT22;2913;51.120;6.772;2022-09-09T03:40:17;17.10;99.90
5775;DHT22;2913;51.120;6.772;2022-09-09T03:42:43;17.20;99.90
5775;DHT22;2913;51.120;6.772;2022-09-09T03:45:09;17.10;99.90
5775;DHT22;2913;51.120;6.772;2022-09-09T03:47:40;17.10;99.90
5775;DHT22;2913;51.120;6.772;2022-09-09T03:50:07;17.10;99.90
5775;DHT22;2913;51.120;6.772;2022-09-09T03:52:36;17.10;99.90
5775;DHT22;2913;51.120;6.772;2022-09-09T03:55:02;17.10;99.90
5775;DHT22;2913;51.120;6.772;2022-09-09T03:57:32;17.10;99.90
5775;DHT22;2913;51.120;6.772;2022-09-09T04:00:02;17.10;99.90
5775;DHT22;2913;51.120;6.772;2022-09-09T04:02:28;17.10;99.90
5775;DHT22;2913;51.120;6.772;2022-09-09T04:04:54;17.10;99.90
5775;DHT22;2913;51.120;6.772;2022-09-09T04:07:19;17.10;99.90
5775;DHT22;2913;51.120;6.772;2022-09-09T04:09:45;17.10;99.90
5775;DHT22;2913;51.120;6.772;2022-09-09T04:12:11;17.10;99.90
5775;DHT22;2913;51.120;6.772;2022-09-09T04:14:38;17.10;99.90
5775;DHT22;2913;51.120;6.772;2022-09-09T04:17:04;17.10;99.90
5775;DHT22;2913;51.120;6.772;2022-09-09T04:19:34;17.10;99.90
5775;DHT22;2913;51.120;6.772;2022-09-09T04:21:59;17.10;99.90
5775;DHT22;2913;51.120;6.772;2022-09-09T04:24:25;17.20;99.90
5775;DHT22;2913;51.120;6.772;2022-09-09T04:26:55;17.10;99.90
5775;DHT22;2913;51.120;6.772;2022-09-09T04:29:20;17.20;99.90
5775;DHT22;2913;51.120;6.772;2022-09-09T04:31:46;17.10;99.90
5775;DHT22;2913;51.120;6.772;2022-09-09T04:34:12;17.10;99.90
5775;DHT22;2913;51.120;6.772;2022-09-09T04:36:37;17.10;99.90
5775;DHT22;2913;51.120;6.772;2022-09-09T04:39:06;17.10;99.90
5775;DHT22;2913;51.120;6.772;2022-09-09T04:41:35;17.20;99.90
5775;DHT22;2913;51.120;6.772;2022-09-09T04:44:00;17.10;99.90
5775;DHT22;2913;51.120;6.772;2022-09-09T04:46:28;17.10;99.90
5775;DHT22;2913;51.120;6.772;2022-09-09T04:48:56;17.10;99.90
5775;DHT22;2913;51.120;6.772;2022-09-09T04:51:24;17.10;99.90
5775;DHT22;2913;51.120;6.772;2022-09-09T04:53:55;17.20;99.90
5775;DHT22;2913;51.120;6.772;2022-09-09T04:56:21;17.20;99.90
5775;DHT22;2913;51.120;6.772;2022-09-09T04:58:47;17.20;99.90
5775;DHT22;2913;51.120;6.772;2022-09-09T05:03:41;17.20;99.90
5775;DHT22;2913;51.120;6.772;2022-09-09T05:06:09;17.20;99.90
5775;DHT22;2913;51.120;6.772;2022-09-09T05:08:37;17.20;99.90
5775;DHT22;2913;51.120;6.772;2022-09-09T05:11:19;17.20;99.90
5775;DHT22;2913;51.120;6.772;2022-09-09T05:13:46;17.30;99.90
5775;DHT22;2913;51.120;6.772;2022-09-09T05:16:13;17.20;99.90
5775;DHT22;2913;51.120;6.772;2022-09-09T05:18:42;17.20;99.90
5775;DHT22;2913;51.120;6.772;2022-09-09T05:21:15;17.30;99.90
5775;DHT22;2913;51.120;6.772;2022-09-09T05:23:44;17.30;99.90
5775;DHT22;2913;51.120;6.772;2022-09-09T05:26:13;17.30;99.90
5775;DHT22;2913;51.120;6.772;2022-09-09T05:28:39;17.30;99.90
5775;DHT22;2913;51.120;6.772;2022-09-09T05:31:10;17.20;99.90
5775;DHT22;2913;51.120;6.772;2022-09-09T05:33:43;17.30;99.90
5775;DHT22;2913;51.120;6.772;2022-09-09T05:36:12;17.30;99.90
5775;DHT22;2913;51.120;6.772;2022-09-09T05:38:39;17.30;99.90
5775;DHT22;2913;51.120;6.772;2022-09-09T05:41:06;17.30;99.90
5775;DHT22;2913;51.120;6.772;2022-09-09T05:43:33;17.30;99.90
5775;DHT22;2913;51.120;6.772;2022-09-09T05:46:14;17.40;99.90
5775;DHT22;2913;51.120;6.772;2022-09-09T05:48:44;17.40;99.90
5775;DHT22;2913;51.120;6.772;2022-09-09T05:51:19;17.40;99.90
5775;DHT22;2913;51.120;6.772;2022-09-09T05:53:46;17.40;99.90
5775;DHT22;2913;51.120;6.772;2022-09-09T05:58:43;17.50;99.90
5775;DHT22;2913;51.120;6.772;2022-09-09T06:01:20;17.50;99.90
5775;DHT22;2913;51.120;6.772;2022-09-09T06:03:49;17.60;99.90
5775;DHT22;2913;51.120;6.772;2022-09-09T06:06:20;17.60;99.90
5775;DHT22;2913;51.120;6.772;2022-09-09T06:08:47;17.60;99.90
5775;DHT22;2913;51.120;6.772;2022-09-09T06:11:21;17.60;99.90
5775;DHT22;2913;51.120;6.772;2022-09-09T06:13:48;17.70;99.90
5775;DHT22;2913;51.120;6.772;2022-09-09T06:16:19;17.70;99.90
5775;DHT22;2913;51.120;6.772;2022-09-09T06:18:49;17.70;99.90
5775;DHT22;2913;51.120;6.772;2022-09-09T06:21:18;17.70;99.90
5775;DHT22;2913;51.120;6.772;2022-09-09T06:23:44;17.70;99.90
5775;DHT22;2913;51.120;6.772;2022-09-09T06:28:39;17.80;99.90
5775;DHT22;2913;51.120;6.772;2022-09-09T06:31:10;17.90;99.90
5775;DHT22;2913;51.120;6.772;2022-09-09T06:33:38;17.90;99.90
5775;DHT22;2913;51.120;6.772;2022-09-09T06:36:16;17.90;99.90
5775;DHT22;2913;51.120;6.772;2022-09-09T06:38:47;17.90;99.90
5775;DHT22;2913;51.120;6.772;2022-09-09T06:41:16;18.00;99.90
5775;DHT22;2913;51.120;6.772;2022-09-09T06:43:46;18.10;99.90
5775;DHT22;2913;51.120;6.772;2022-09-09T06:46:18;18.40;99.90
5775;DHT22;2913;51.120;6.772;2022-09-09T06:48:45;18.60;99.90
5775;DHT22;2913;51.120;6.772;2022-09-09T06:51:15;19.10;99.90
5775;DHT22;2913;51.120;6.772;2022-09-09T06:53:44;19.30;99.90
5775;DHT22;2913;51.120;6.772;2022-09-09T06:58:45;19.30;99.90
5775;DHT22;2913;51.120;6.772;2022-09-09T07:01:19;19.50;99.90
5775;DHT22;2913;51.120;6.772;2022-09-09T07:03:49;19.80;99.90
5775;DHT22;2913;51.120;6.772;2022-09-09T07:06:27;19.90;99.90
5775;DHT22;2913;51.120;6.772;2022-09-09T07:08:57;19.90;99.90
5775;DHT22;2913;51.120;6.772;2022-09-09T07:11:28;19.90;99.90
5775;DHT22;2913;51.120;6.772;2022-09-09T07:13:54;20.00;99.90
5775;DHT22;2913;51.120;6.772;2022-09-09T07:16:23;19.90;99.90
5775;DHT22;2913;51.120;6.772;2022-09-09T07:18:50;19.90;99.90
5775;DHT22;2913;51.120;6.772;2022-09-09T07:21:17;19.80;99.90
5775;DHT22;2913;51.120;6.772;2022-09-09T07:23:43;19.80;99.90
5775;DHT22;2913;51.120;6.772;2022-09-09T07:26:19;19.60;99.90
5775;DHT22;2913;51.120;6.772;2022-09-09T07:28:46;19.60;99.90
5775;DHT22;2913;51.120;6.772;2022-09-09T07:31:19;19.60;99.90
5775;DHT22;2913;51.120;6.772;2022-09-09T07:33:46;19.60;99.90
5775;DHT22;2913;51.120;6.772;2022-09-09T07:38:48;19.70;99.90
5775;DHT22;2913;51.120;6.772;2022-09-09T07:41:20;19.80;99.90
5775;DHT22;2913;51.120;6.772;2022-09-09T07:43:48;19.80;99.90
5775;DHT22;2913;51.120;6.772;2022-09-09T07:46:16;19.80;99.90
5775;DHT22;2913;51.120;6.772;2022-09-09T07:48:50;19.80;99.90
5775;DHT22;2913;51.120;6.772;2022-09-09T07:51:18;19.80;99.90
5775;DHT22;2913;51.120;6.772;2022-09-09T07:53:45;19.90;99.90
5775;DHT22;2913;51.120;6.772;2022-09-09T07:56:15;19.80;99.90
5775;DHT22;2913;51.120;6.772;2022-09-09T07:58:49;19.60;99.90
5775;DHT22;2913;51.120;6.772;2022-09-09T08:03:53;19.70;99.90
5775;DHT22;2913;51.120;6.772;2022-09-09T08:06:22;19.60;99.90
5775;DHT22;2913;51.120;6.772;2022-09-09T08:08:50;19.70;99.90
5775;DHT22;2913;51.120;6.772;2022-09-09T08:11:16;19.70;99.90
5775;DHT22;2913;51.120;6.772;2022-09-09T08:13:43;19.70;99.90
5775;DHT22;2913;51.120;6.772;2022-09-09T08:16:16;19.60;99.90
5775;DHT22;2913;51.120;6.772;2022-09-09T08:18:47;19.70;99.90
5775;DHT22;2913;51.120;6.772;2022-09-09T08:21:17;19.80;99.90
5775;DHT22;2913;51.120;6.772;2022-09-09T08:23:45;19.90;99.90
5775;DHT22;2913;51.120;6.772;2022-09-09T08:26:19;20.00;99.90
5775;DHT22;2913;51.120;6.772;2022-09-09T08:28:52;20.10;99.90
5775;DHT22;2913;51.120;6.772;2022-09-09T08:33:50;20.30;99.90
5775;DHT22;2913;51.120;6.772;2022-09-09T08:36:18;20.30;99.90
5775;DHT22;2913;51.120;6.772;2022-09-09T08:38:47;20.20;99.90
5775;DHT22;2913;51.120;6.772;2022-09-09T08:44:02;20.30;99.90
5775;DHT22;2913;51.120;6.772;2022-09-09T08:46:42;20.30;99.90
5775;DHT22;2913;51.120;6.772;2022-09-09T08:51:59;20.30;99.90
5775;DHT22;2913;51.120;6.772;2022-09-09T08:54:32;20.40;99.90
5775;DHT22;2913;51.120;6.772;2022-09-09T08:57:01;20.20;99.90
5775;DHT22;2913;51.120;6.772;2022-09-09T08:59:27;20.20;99.90
5775;DHT22;2913;51.120;6.772;2022-09-09T09:02:13;20.20;99.90
5775;DHT22;2913;51.120;6.772;2022-09-09T09:09:50;20.30;99.90
5775;DHT22;2913;51.120;6.772;2022-09-09T09:12:28;20.30;99.90
5775;DHT22;2913;51.120;6.772;2022-09-09T09:14:59;20.20;99.90
5775;DHT22;2913;51.120;6.772;2022-09-09T09:17:28;20.20;99.90
5775;DHT22;2913;51.120;6.772;2022-09-09T09:19:58;20.30;99.90
5775;DHT22;2913;51.120;6.772;2022-09-09T09:22:44;20.30;99.90
5775;DHT22;2913;51.120;6.772;2022-09-09T09:30:22;20.40;99.90
5775;DHT22;2913;51.120;6.772;2022-09-09T09:35:37;20.50;99.90
5775;DHT22;2913;51.120;6.772;2022-09-09T09:40:53;20.60;99.90
5775;DHT22;2913;51.120;6.772;2022-09-09T09:43:42;20.90;99.90
5775;DHT22;2913;51.120;6.772;2022-09-09T09:46:20;20.70;99.90
5775;DHT22;2913;51.120;6.772;2022-09-09T09:49:05;20.90;99.90
5775;DHT22;2913;51.120;6.772;2022-09-09T09:51:34;21.10;99.90
5775;DHT22;2913;51.120;6.772;2022-09-09T09:56:38;21.40;99.90
5775;DHT22;2913;51.120;6.772;2022-09-09T09:59:05;21.50;99.90
5775;DHT22;2913;51.120;6.772;2022-09-09T10:01:44;21.40;99.90
5775;DHT22;2913;51.120;6.772;2022-09-09T10:04:19;21.40;99.90
5775;DHT22;2913;51.120;6.772;2022-09-09T10:06:49;21.40;99.90
5775;DHT22;2913;51.120;6.772;2022-09-09T10:17:54;21.60;99.90
5775;DHT22;2913;51.120;6.772;2022-09-09T10:20:45;21.70;99.90
5775;DHT22;2913;51.120;6.772;2022-09-09T10:23:23;21.60;99.90
5775;DHT22;2913;51.120;6.772;2022-09-09T10:31:38;22.20;99.90
5775;DHT22;2913;51.120;6.772;2022-09-09T10:34:22;22.30;99.90
5775;DHT22;2913;51.120;6.772;2022-09-09T10:36:52;22.20;99.60
5775;DHT22;2913;51.120;6.772;2022-09-09T10:42:12;22.10;98.30
5775;DHT22;2913;51.120;6.772;2022-09-09T10:45:01;22.00;97.20
5775;DHT22;2913;51.120;6.772;2022-09-09T10:47:50;21.90;97.00
5775;DHT22;2913;51.120;6.772;2022-09-09T10:50:52;21.80;97.20
5775;DHT22;2913;51.120;6.772;2022-09-09T10:56:04;21.80;98.30
5775;DHT22;2913;51.120;6.772;2022-09-09T10:59:04;21.80;98.10
5775;DHT22;2913;51.120;6.772;2022-09-09T11:01:48;21.70;98.30
5775;DHT22;2913;51.120;6.772;2022-09-09T11:04:25;21.50;98.20
5775;DHT22;2913;51.120;6.772;2022-09-09T11:06:57;21.60;99.20
5775;DHT22;2913;51.120;6.772;2022-09-09T11:09:29;21.50;99.90
5775;DHT22;2913;51.120;6.772;2022-09-09T11:11:57;21.40;99.90
5775;DHT22;2913;51.120;6.772;2022-09-09T11:17:09;21.40;99.90
5775;DHT22;2913;51.120;6.772;2022-09-09T11:19:40;21.40;99.90
5775;DHT22;2913;51.120;6.772;2022-09-09T11:25:20;21.30;99.90
5775;DHT22;2913;51.120;6.772;2022-09-09T11:28:17;21.20;99.90
5775;DHT22;2913;51.120;6.772;2022-09-09T11:38:58;21.60;99.90
5775;DHT22;2913;51.120;6.772;2022-09-09T11:41:34;21.70;99.90
5775;DHT22;2913;51.120;6.772;2022-09-09T11:44:17;21.70;99.90
5775;DHT22;2913;51.120;6.772;2022-09-09T11:46:53;21.80;99.90
5775;DHT22;2913;51.120;6.772;2022-09-09T11:49:41;21.70;99.90
5775;DHT22;2913;51.120;6.772;2022-09-09T11:54:54;21.50;99.90
5775;DHT22;2913;51.120;6.772;2022-09-09T11:57:32;21.40;99.90
5775;DHT22;2913;51.120;6.772;2022-09-09T11:59:59;21.30;99.90
5775;DHT22;2913;51.120;6.772;2022-09-09T12:02:28;21.30;99.90
5775;DHT22;2913;51.120;6.772;2022-09-09T12:05:11;21.20;99.90
5775;DHT22;2913;51.120;6.772;2022-09-09T12:07:52;21.30;99.90
5775;DHT22;2913;51.120;6.772;2022-09-09T12:10:29;21.40;99.90
5775;DHT22;2913;51.120;6.772;2022-09-09T12:12:55;21.40;99.90
5775;DHT22;2913;51.120;6.772;2022-09-09T12:15:32;21.50;99.90
5775;DHT22;2913;51.120;6.772;2022-09-09T12:17:58;21.60;99.90
5775;DHT22;2913;51.120;6.772;2022-09-09T12:20:35;21.70;99.90
5775;DHT22;2913;51.120;6.772;2022-09-09T12:26:07;22.20;99.90
5775;DHT22;2913;51.120;6.772;2022-09-09T12:34:17;22.50;99.90
5775;DHT22;2913;51.120;6.772;2022-09-09T12:36:50;22.60;99.90
5775;DHT22;2913;51.120;6.772;2022-09-09T12:39:22;22.60;99.90
5775;DHT22;2913;51.120;6.772;2022-09-09T12:41:52;22.60;99.90
5775;DHT22;2913;51.120;6.772;2022-09-09T12:44:23;22.50;99.90
5775;DHT22;2913;51.120;6.772;2022-09-09T12:46:50;22.30;99.90
5775;DHT22;2913;51.120;6.772;2022-09-09T12:49:32;22.20;99.90
5775;DHT22;2913;51.120;6.772;2022-09-09T12:54:44;21.10;99.90
5775;DHT22;2913;51.120;6.772;2022-09-09T12:57:14;21.20;99.90
5775;DHT22;2913;51.120;6.772;2022-09-09T12:59:44;21.20;99.90
5775;DHT22;2913;51.120;6.772;2022-09-09T13:02:24;21.50;99.90
5775;DHT22;2913;51.120;6.772;2022-09-09T13:04:50;21.70;99.90
5775;DHT22;2913;51.120;6.772;2022-09-09T13:07:20;21.70;99.90
5775;DHT22;2913;51.120;6.772;2022-09-09T13:09:47;21.80;99.90
5775;DHT22;2913;51.120;6.772;2022-09-09T13:12:19;22.00;99.90
5775;DHT22;2913;51.120;6.772;2022-09-09T13:14:51;22.20;99.90
5775;DHT22;2913;51.120;6.772;2022-09-09T13:17:23;22.00;99.90
5775;DHT22;2913;51.120;6.772;2022-09-09T13:19:52;22.10;99.90
5775;DHT22;2913;51.120;6.772;2022-09-09T13:27:39;22.10;99.90
5775;DHT22;2913;51.120;6.772;2022-09-09T13:32:47;22.40;99.90
5775;DHT22;2913;51.120;6.772;2022-09-09T13:35:25;22.40;99.90
5775;DHT22;2913;51.120;6.772;2022-09-09T13:37:50;22.40;99.90
5775;DHT22;2913;51.120;6.772;2022-09-09T13:40:20;22.50;99.90
5775;DHT22;2913;51.120;6.772;2022-09-09T13:42:47;22.50;99.90
5775;DHT22;2913;51.120;6.772;2022-09-09T13:45:21;22.40;99.90
5775;DHT22;2913;51.120;6.772;2022-09-09T13:47:47;22.30;99.90
5775;DHT22;2913;51.120;6.772;2022-09-09T13:50:30;22.10;99.90
5775;DHT22;2913;51.120;6.772;2022-09-09T13:52:59;22.10;99.90
5775;DHT22;2913;51.120;6.772;2022-09-09T13:55:28;22.20;99.90
5775;DHT22;2913;51.120;6.772;2022-09-09T13:58:00;22.20;99.90
5775;DHT22;2913;51.120;6.772;2022-09-09T14:00:26;22.10;99.90
5775;DHT22;2913;51.120;6.772;2022-09-09T14:02:56;22.00;99.90
5775;DHT22;2913;51.120;6.772;2022-09-09T14:05:27;22.20;99.90
5775;DHT22;2913;51.120;6.772;2022-09-09T14:07:53;22.30;99.90
5775;DHT22;2913;51.120;6.772;2022-09-09T14:10:18;22.40;99.90
5775;DHT22;2913;51.120;6.772;2022-09-09T14:12:47;22.50;99.90
5775;DHT22;2913;51.120;6.772;2022-09-09T14:15:13;22.60;99.90
5775;DHT22;2913;51.120;6.772;2022-09-09T14:17:42;22.60;99.90
5775;DHT22;2913;51.120;6.772;2022-09-09T14:20:08;22.50;99.90
5775;DHT22;2913;51.120;6.772;2022-09-09T14:22:35;22.50;99.90
5775;DHT22;2913;51.120;6.772;2022-09-09T14:25:05;22.50;99.90
5775;DHT22;2913;51.120;6.772;2022-09-09T14:27:31;22.40;99.90
5775;DHT22;2913;51.120;6.772;2022-09-09T14:30:00;22.20;99.90
5775;DHT22;2913;51.120;6.772;2022-09-09T14:32:28;22.30;99.90
5775;DHT22;2913;51.120;6.772;2022-09-09T14:34:54;22.30;99.90
5775;DHT22;2913;51.120;6.772;2022-09-09T14:37:20;22.20;99.90
5775;DHT22;2913;51.120;6.772;2022-09-09T14:39:48;22.00;99.90
5775;DHT22;2913;51.120;6.772;2022-09-09T14:42:18;21.80;99.90
5775;DHT22;2913;51.120;6.772;2022-09-09T14:44:44;21.40;99.90
5775;DHT22;2913;51.120;6.772;2022-09-09T14:47:09;21.00;99.90
5775;DHT22;2913;51.120;6.772;2022-09-09T14:49:35;20.80;99.90
5775;DHT22;2913;51.120;6.772;2022-09-09T14:52:07;20.60;99.90
5775;DHT22;2913;51.120;6.772;2022-09-09T14:54:34;20.50;99.90
5775;DHT22;2913;51.120;6.772;2022-09-09T14:57:02;20.40;99.90
5775;DHT22;2913;51.120;6.772;2022-09-09T14:59:28;20.30;99.90
5775;DHT22;2913;51.120;6.772;2022-09-09T15:01:53;20.20;99.90
5775;DHT22;2913;51.120;6.772;2022-09-09T15:04:19;20.10;99.90
5775;DHT22;2913;51.120;6.772;2022-09-09T15:06:45;20.00;99.90
5775;DHT22;2913;51.120;6.772;2022-09-09T15:09:14;20.00;99.90
5775;DHT22;2913;51.120;6.772;2022-09-09T15:11:42;20.00;99.90
5775;DHT22;2913;51.120;6.772;2022-09-09T15:14:10;20.10;99.90
5775;DHT22;2913;51.120;6.772;2022-09-09T15:16:38;20.00;99.90
5775;DHT22;2913;51.120;6.772;2022-09-09T15:19:04;20.10;99.90
5775;DHT22;2913;51.120;6.772;2022-09-09T15:21:32;20.00;99.90
5775;DHT22;2913;51.120;6.772;2022-09-09T15:23:59;20.10;99.90
5775;DHT22;2913;51.120;6.772;2022-09-09T15:26:25;20.10;99.90
5775;DHT22;2913;51.120;6.772;2022-09-09T15:28:51;20.20;99.90
5775;DHT22;2913;51.120;6.772;2022-09-09T15:31:20;20.20;99.90
5775;DHT22;2913;51.120;6.772;2022-09-09T15:33:49;20.10;99.90
5775;DHT22;2913;51.120;6.772;2022-09-09T15:36:25;20.10;99.90
5775;DHT22;2913;51.120;6.772;2022-09-09T15:38:52;20.00;99.90
5775;DHT22;2913;51.120;6.772;2022-09-09T15:41:22;19.90;99.90
5775;DHT22;2913;51.120;6.772;2022-09-09T15:43:49;19.90;99.90
5775;DHT22;2913;51.120;6.772;2022-09-09T15:49:13;19.70;99.90
5775;DHT22;2913;51.120;6.772;2022-09-09T15:51:41;19.60;99.90
5775;DHT22;2913;51.120;6.772;2022-09-09T15:54:10;19.40;99.90
5775;DHT22;2913;51.120;6.772;2022-09-09T15:56:39;19.40;99.90
5775;DHT22;2913;51.120;6.772;2022-09-09T15:59:05;19.50;99.90
5775;DHT22;2913;51.120;6.772;2022-09-09T16:01:31;19.60;99.90
5775;DHT22;2913;51.120;6.772;2022-09-09T16:03:59;19.60;99.90
5775;DHT22;2913;51.120;6.772;2022-09-09T16:06:26;19.60;99.90
5775;DHT22;2913;51.120;6.772;2022-09-09T16:08:57;19.60;99.90
5775;DHT22;2913;51.120;6.772;2022-09-09T16:11:28;19.60;99.90
5775;DHT22;2913;51.120;6.772;2022-09-09T16:13:55;19.60;99.90
5775;DHT22;2913;51.120;6.772;2022-09-09T16:16:25;19.70;99.90
5775;DHT22;2913;51.120;6.772;2022-09-09T16:18:59;19.60;99.90
5775;DHT22;2913;51.120;6.772;2022-09-09T16:21:29;19.60;99.90
5775;DHT22;2913;51.120;6.772;2022-09-09T16:23:56;19.60;99.90
5775;DHT22;2913;51.120;6.772;2022-09-09T16:26:23;19.60;99.90
5775;DHT22;2913;51.120;6.772;2022-09-09T16:28:53;19.60;99.90
5775;DHT22;2913;51.120;6.772;2022-09-09T16:31:23;19.60;99.90
5775;DHT22;2913;51.120;6.772;2022-09-09T16:33:49;19.40;99.90
5775;DHT22;2913;51.120;6.772;2022-09-09T16:36:27;19.40;99.90
5775;DHT22;2913;51.120;6.772;2022-09-09T16:38:54;19.30;99.90
5775;DHT22;2913;51.120;6.772;2022-09-09T16:41:20;19.30;99.90
5775;DHT22;2913;51.120;6.772;2022-09-09T16:43:55;19.30;99.90
5775;DHT22;2913;51.120;6.772;2022-09-09T16:46:21;19.20;99.90
5775;DHT22;2913;51.120;6.772;2022-09-09T16:48:48;19.30;99.90
5775;DHT22;2913;51.120;6.772;2022-09-09T16:51:22;19.30;99.90
5775;DHT22;2913;51.120;6.772;2022-09-09T16:53:54;19.40;99.90
5775;DHT22;2913;51.120;6.772;2022-09-09T16:56:25;19.30;99.90
5775;DHT22;2913;51.120;6.772;2022-09-09T16:58:56;19.40;99.90
5775;DHT22;2913;51.120;6.772;2022-09-09T17:01:23;19.50;99.90
5775;DHT22;2913;51.120;6.772;2022-09-09T17:04:01;19.50;99.90
5775;DHT22;2913;51.120;6.772;2022-09-09T17:06:29;19.50;99.90
5775;DHT22;2913;51.120;6.772;2022-09-09T17:09:03;19.60;99.90
5775;DHT22;2913;51.120;6.772;2022-09-09T17:11:30;19.50;99.90
5775;DHT22;2913;51.120;6.772;2022-09-09T17:13:58;19.40;99.90
5775;DHT22;2913;51.120;6.772;2022-09-09T17:16:26;19.50;99.90
5775;DHT22;2913;51.120;6.772;2022-09-09T17:18:58;19.40;99.90
5775;DHT22;2913;51.120;6.772;2022-09-09T17:21:30;19.40;99.90
5775;DHT22;2913;51.120;6.772;2022-09-09T17:23:57;19.40;99.90
5775;DHT22;2913;51.120;6.772;2022-09-09T17:26:26;19.30;99.90
5775;DHT22;2913;51.120;6.772;2022-09-09T17:28:52;19.30;99.90
5775;DHT22;2913;51.120;6.772;2022-09-09T17:31:18;19.20;99.90
5775;DHT22;2913;51.120;6.772;2022-09-09T17:33:47;19.10;99.90
5775;DHT22;2913;51.120;6.772;2022-09-09T17:36:18;19.10;99.90
5775;DHT22;2913;51.120;6.772;2022-09-09T17:38:46;19.00;99.90
5775;DHT22;2913;51.120;6.772;2022-09-09T17:41:23;19.00;99.90
5775;DHT22;2913;51.120;6.772;2022-09-09T17:43:50;19.00;99.90
5775;DHT22;2913;51.120;6.772;2022-09-09T17:46:26;19.00;99.90
5775;DHT22;2913;51.120;6.772;2022-09-09T17:48:58;19.00;99.90
5775;DHT22;2913;51.120;6.772;2022-09-09T17:51:25;18.90;99.90
5775;DHT22;2913;51.120;6.772;2022-09-09T17:54:00;18.80;99.90
5775;DHT22;2913;51.120;6.772;2022-09-09T17:56:28;18.90;99.90
5775;DHT22;2913;51.120;6.772;2022-09-09T17:58:56;18.90;99.90
5775;DHT22;2913;51.120;6.772;2022-09-09T18:01:25;18.90;99.90
5775;DHT22;2913;51.120;6.772;2022-09-09T18:03:55;18.80;99.90
5775;DHT22;2913;51.120;6.772;2022-09-09T18:06:27;18.80;99.90
5775;DHT22;2913;51.120;6.772;2022-09-09T18:08:56;18.80;99.90
5775;DHT22;2913;51.120;6.772;2022-09-09T18:11:26;18.80;99.90
5775;DHT22;2913;51.120;6.772;2022-09-09T18:13:57;18.70;99.90
5775;DHT22;2913;51.120;6.772;2022-09-09T18:16:26;18.70;99.90
5775;DHT22;2913;51.120;6.772;2022-09-09T18:18:54;18.80;99.90
5775;DHT22;2913;51.120;6.772;2022-09-09T18:21:22;18.80;99.90
5775;DHT22;2913;51.120;6.772;2022-09-09T18:23:50;18.80;99.90
5775;DHT22;2913;51.120;6.772;2022-09-09T18:26:23;18.70;99.90
5775;DHT22;2913;51.120;6.772;2022-09-09T18:28:54;18.70;99.90
5775;DHT22;2913;51.120;6.772;2022-09-09T18:31:22;18.60;99.90
5775;DHT22;2913;51.120;6.772;2022-09-09T18:33:48;18.70;99.90
5775;DHT22;2913;51.120;6.772;2022-09-09T18:36:21;18.70;99.90
5775;DHT22;2913;51.120;6.772;2022-09-09T18:38:47;18.60;99.90
5775;DHT22;2913;51.120;6.772;2022-09-09T18:41:18;18.60;99.90
5775;DHT22;2913;51.120;6.772;2022-09-09T18:43:44;18.50;99.90
5775;DHT22;2913;51.120;6.772;2022-09-09T18:46:12;18.50;99.90
5775;DHT22;2913;51.120;6.772;2022-09-09T18:48:38;18.40;99.90
5775;DHT22;2913;51.120;6.772;2022-09-09T18:51:09;18.30;99.90